Home > Products > Valid Products > TAF

000
FTUS43 KABR 011100
TAFMBG
TAF
KMBG 011122Z 0112/0212 16026G34KT P6SM SKC
     FM011800 15019G29KT P6SM SCT250
     FM020100 14013KT P6SM BKN250=



000
FTUS43 KABR 011100
TAFATY
TAF
KATY 011122Z 0112/0212 16017G25KT P6SM FEW250
     FM011400 17022G32KT P6SM SCT250
     FM020100 16018KT P6SM SCT250=



000
FTUS43 KABR 011100
TAFPIR
TAF
KPIR 011122Z 0112/0212 15017G25KT P6SM SKC
     FM011300 15022G32KT P6SM SCT250
     FM020100 14014KT P6SM BKN250=



000
FTUS43 KABR 011100
TAFABR
TAF
KABR 011122Z 0112/0212 16020G30KT P6SM FEW250
     FM011400 17025G35KT P6SM SCT250
     FM020100 16014KT P6SM SCT250=



000
FTUS43 KABR 010900 AAA
TAFATY
TAF AMD
KATY 010901Z 0109/0206 16017G25KT P6SM SCT250
     FM011400 17022G32KT P6SM SCT250
     FM020100 16018KT P6SM SCT250=



000
FTUS43 KABR 010800 AAA
TAFABR
TAF AMD
KABR 010821Z 0108/0206 16019G27KT P6SM SCT250
     FM011400 17025G35KT P6SM SCT250
     FM020100 16014KT P6SM SCT250=



000
FTUS43 KABR 010500
TAFPIR
TAF
KPIR 010532Z 0106/0206 14021KT P6SM SCT250
     FM011300 15022G32KT P6SM SCT250
     FM020100 14014KT P6SM BKN250=



000
FTUS43 KABR 010500
TAFMBG
TAF
KMBG 010532Z 0106/0206 16027G37KT P6SM SCT250
     FM011800 15019G29KT P6SM SKC
     FM020100 14013KT P6SM BKN250=



000
FTUS43 KABR 010500
TAFATY
TAF
KATY 010532Z 0106/0206 16012KT P6SM BKN250
     FM011400 17022G32KT P6SM SCT250
     FM020100 16018KT P6SM SCT250=



000
FTUS43 KABR 010500
TAFABR
TAF
KABR 010532Z 0106/0206 16013KT P6SM BKN250
     FM011400 17025G35KT P6SM SCT250
     FM020100 16014KT P6SM SCT250=



000
FTUS43 KABR 010400 AAA
TAFPIR
TAF AMD
KPIR 010419Z 0104/0124 14018G28KT P6SM SCT250
     FM011300 15022G35KT P6SM SKC=



000
FTUS43 KABR 010100 AAA
TAFMBG
TAF AMD
KMBG 010111Z 0101/0124 14020G30KT P6SM SCT250
     FM011300 15022G35KT P6SM SKC=



000
FTUS43 KABR 312300
TAFMBG
TAF
KMBG 312323Z 0100/0124 14020KT P6SM SCT250
     FM011300 15022G35KT P6SM SKC=



000
FTUS43 KABR 312300
TAFPIR
TAF
KPIR 312323Z 0100/0124 14017KT P6SM SCT250
     FM011300 15022G35KT P6SM SKC=



000
FTUS43 KABR 312300
TAFABR
TAF
KABR 312323Z 0100/0124 17007KT P6SM SCT250
     FM010400 16015KT P6SM SCT250
     FM011400 17022G35KT P6SM SKC=



000
FTUS43 KABR 312300
TAFATY
TAF
KATY 312323Z 0100/0124 17008KT P6SM SCT250
     FM010500 16015KT P6SM SCT250
     FM011400 17022G35KT P6SM SKC=



000
FTUS43 KABR 311700
TAFATY
TAF
KATY 311725Z 3118/0118 15006KT P6SM SKC
     FM010300 15018KT P6SM SCT250
     FM011500 17025G35KT P6SM SCT200=



000
FTUS43 KABR 311700
TAFPIR
TAF
KPIR 311725Z 3118/0118 15012KT P6SM SCT250
     FM312000 15015G25KT P6SM SCT250
     FM010300 15018KT P6SM SCT200
     FM011500 15020G30KT P6SM SCT200=



000
FTUS43 KABR 311700
TAFABR
TAF
KABR 311725Z 3118/0118 15006KT P6SM SKC
     FM010300 15018KT P6SM SCT250
     FM011500 17025G35KT P6SM SCT200=



000
FTUS43 KABR 311700
TAFMBG
TAF
KMBG 311725Z 3118/0118 15012KT P6SM SCT250
     FM312000 15020G28KT P6SM SCT250
     FM010300 15018KT P6SM SCT200
     FM011500 15020G30KT P6SM SCT200=



000
FTUS43 KABR 311200 AAA
TAFPIR
TAF AMD
KPIR 311219Z 3112/0112 VRB06KT 1/4SM FZFG VV001
     FM311500 13012KT P6SM SKC
     FM311900 14015G25KT P6SM SCT250=



000
FTUS43 KABR 311100
TAFMBG
TAF
KMBG 311125Z 3112/0112 10008KT P6SM SKC
     FM311300 14013KT P6SM SKC
     FM311800 14020G29KT P6SM SCT250=



000
FTUS43 KABR 311100
TAFATY
TAF
KATY 311125Z 3112/0112 35007KT P6SM SKC
     FM311700 14009KT P6SM SKC
     FM010300 15012KT P6SM SCT250=



000
FTUS43 KABR 311100
TAFPIR
TAF
KPIR 311125Z 3112/0112 08006KT P6SM SKC
     FM311500 13012KT P6SM SKC
     FM311900 14015G25KT P6SM SCT250=



000
FTUS43 KABR 311100
TAFABR
TAF
KABR 311125Z 3112/0112 VRB06KT P6SM SKC
     FM311600 15011KT P6SM SKC
     FM010100 15013KT P6SM SCT250=



000
FTUS43 KABR 310500
TAFABR
TAF
KABR 310539Z 3106/0106 VRB05KT P6SM SKC WS015/02035KT
     FM310900 VRB05KT P6SM SKC
     FM311600 15011KT P6SM SKC
     FM010100 15013KT P6SM SCT250=



000
FTUS43 KABR 310500
TAFATY
TAF
KATY 310539Z 3106/0106 36008KT P6SM SKC WS015/02035KT
     FM311200 VRB06KT P6SM SKC
     FM311700 14009KT P6SM SKC
     FM010300 15012KT P6SM SCT250=



000
FTUS43 KABR 310500
TAFMBG
TAF
KMBG 310539Z 3106/0106 VRB05KT P6SM SKC
     FM311300 15013KT P6SM SKC
     FM311800 14015G25KT P6SM SCT250=



000
FTUS43 KABR 310500
TAFPIR
TAF
KPIR 310539Z 3106/0106 04011KT P6SM BKN022
     FM310700 09008KT P6SM SKC
     FM311500 14012KT P6SM SKC
     FM311900 14015G25KT P6SM SCT250=



000
FTUS43 KABR 310200 AAA
TAFATY
TAF AMD
KATY 310208Z 3102/3124 01018G26KT P6SM OVC025
     FM310300 01013KT P6SM SCT025
     FM310400 VRB05KT P6SM SKC
     FM311600 15009KT P6SM SKC=



000
FTUS43 KABR 310200 AAA
TAFPIR
TAF AMD
KPIR 310207Z 3102/3124 03013KT P6SM OVC015
     FM310500 VRB05KT P6SM SKC
     FM311600 14015G24KT P6SM SKC=



000
FTUS43 KABR 302300
TAFPIR
TAF
KPIR 302325Z 3100/3124 36013KT P6SM OVC015
     FM310500 VRB05KT P6SM SKC
     FM311600 14015G24KT P6SM SKC=



000
FTUS43 KABR 302300
TAFATY
TAF
KATY 302325Z 3100/3124 36018G25KT P6SM OVC015
     FM310300 36013KT P6SM SCT015
     FM310500 VRB05KT P6SM SKC
     FM311600 15009KT P6SM SKC=



000
FTUS43 KABR 302300
TAFABR
TAF
KABR 302325Z 3100/3124 36016G24KT P6SM OVC025
     FM310200 36013KT P6SM SCT025
     FM310400 VRB05KT P6SM SKC
     FM311600 16011KT P6SM SKC=



000
FTUS43 KABR 302300
TAFMBG
TAF
KMBG 302325Z 3100/3124 01010KT P6SM OVC015
     FM310300 VRB05KT P6SM SKC
     FM311600 15017G25KT P6SM SKC=



000
FTUS43 KABR 302100 AAA
TAFMBG
TAF AMD
KMBG 302121Z 3021/3118 01013KT P6SM OVC015
     FM310000 36009KT P6SM BKN015
     FM310500 VRB05KT P6SM SKC
     FM311600 14012KT P6SM SKC=



000
FTUS43 KABR 302100 AAB
TAFPIR
TAF AMD
KPIR 302121Z 3021/3118 35014G21KT P6SM SKC
     FM310700 VRB05KT P6SM SKC
     FM311600 14012KT P6SM SKC=



000
FTUS43 KABR 302100 AAA
TAFMBG
TAF AMD
KMBG 302121Z 3021/3118 01013KT P6SM OVC015
     FM310000 36009KT P6SM BKN015
     FM310500 VRB05KT P6SM SKC
     FM311600 14012KT P6SM SKC=



000
FTUS43 KABR 302100 AAA
TAFABR
TAF AMD
KABR 302120Z 3021/3118 01016G22KT P6SM OVC025
     FM310000 36010KT P6SM BKN025
     FM310500 VRB06KT P6SM SKC
     FM311600 14012KT P6SM SKC=



000
FTUS43 KABR 302100 AAA
TAFATY
TAF AMD
KATY 302120Z 3021/3118 36018G26KT P6SM OVC015
     FM310000 36010KT P6SM OVC015
     FM310800 VRB06KT P6SM SKC
     FM311600 14012KT P6SM SKC=



000
FTUS43 KABR 302000 AAA
TAFPIR
TAF AMD
KPIR 302052Z 3021/3118 36014KT P6SM SCT020
      TEMPO 3021/3024 OVC020
     FM310700 VRB06KT P6SM SKC
     FM311600 14012KT P6SM SKC=



000
FTUS43 KABR 301700
TAFMBG
TAF
KMBG 301725Z 3018/3118 35014G24KT P6SM OVC015
      TEMPO 3018/3021 SCT012
     FM310000 36010KT P6SM OVC012
     FM310500 VRB06KT P6SM SKC
     FM311600 14012KT P6SM SKC=



000
FTUS43 KABR 301700
TAFATY
TAF
KATY 301725Z 3018/3118 35014G24KT 4SM -DZ OVC010
     FM301900 35014G24KT P6SM OVC010
      TEMPO 3019/3022 P6SM SCT008
     FM310000 36010KT P6SM OVC008
     FM310800 VRB06KT P6SM SKC
     FM311600 14012KT P6SM SKC=



000
FTUS43 KABR 301700
TAFABR
TAF
KABR 301725Z 3018/3118 35014G24KT P6SM OVC015
      TEMPO 3018/3021 SCT012
     FM310000 36010KT P6SM OVC012
     FM310500 VRB06KT P6SM SKC
     FM311600 14012KT P6SM SKC=



000
FTUS43 KABR 301700
TAFPIR
TAF
KPIR 301725Z 3018/3118 35014G24KT P6SM OVC015
      TEMPO 3018/3022 SCT012
     FM310000 36010KT P6SM OVC012
     FM310700 VRB06KT P6SM SKC
     FM311600 14012KT P6SM SKC=



000
FTUS43 KABR 301400 AAA
TAFMBG
TAF AMD
KMBG 301451Z 3015/3112 33014G21KT P6SM OVC012
     FM310200 03010KT P6SM SKC
     FM310800 13010KT P6SM SKC=



000
FTUS43 KABR 301400 AAA
TAFATY
TAF AMD
KATY 301451Z 3015/3112 35015G24KT P6SM OVC018
     FM310500 35015KT P6SM BKN050
     FM310700 VRB05KT P6SM SKC=



000
FTUS43 KABR 301300 AAA
TAFABR
TAF AMD
KABR 301356Z 3014/3112 35015G22KT P6SM OVC008
     FM302300 36015KT P6SM BKN050
     FM310200 36004KT P6SM SKC=



000
FTUS43 KABR 301100
TAFMBG
TAF
KMBG 301128Z 3012/3112 32012KT P6SM SKC
     FM301400 33014G21KT P6SM OVC025
     FM310200 03010KT P6SM SKC
     FM310800 13010KT P6SM SKC=



000
FTUS43 KABR 301100
TAFABR
TAF
KABR 301128Z 3012/3112 32011KT P6SM SKC
     FM301500 35015G22KT P6SM OVC025
     FM302300 36015KT P6SM BKN050
     FM310200 36004KT P6SM SKC=



000
FTUS43 KABR 301100
TAFPIR
TAF
KPIR 301128Z 3012/3112 32015KT P6SM SKC
     FM301500 34016G23KT P6SM OVC025
     FM310200 36007KT P6SM SKC
     FM310500 VRB05KT P6SM SKC=



000
FTUS43 KABR 301100
TAFATY
TAF
KATY 301128Z 3012/3112 VRB03KT P6SM SKC
     FM301600 35015G24KT P6SM OVC025
     FM310500 35015KT P6SM BKN050
     FM310700 VRB05KT P6SM SKC=



000
FTUS43 KABR 301000 AAA
TAFMBG
TAF AMD
KMBG 301033Z 3011/3106 31012KT P6SM SKC
     FM301300 33014G21KT P6SM OVC025
     FM310000 02007KT P6SM SKC=



000
FTUS43 KABR 301000 AAA
TAFPIR
TAF AMD
KPIR 301033Z 3011/3106 31017KT P6SM SKC
     FM301500 34016G23KT P6SM OVC025
     FM310100 36007KT P6SM SKC=



000
FTUS43 KABR 301000 AAA
TAFMBG
TAF AMD
KMBG 301033Z 3011/3106 31012KT P6SM SKC
     FM301300 33014G21KT P6SM OVC025
     FM310000 02007KT P6SM SKC=



000
FTUS43 KABR 300500
TAFPIR
TAF
KPIR 300523Z 3006/3106 26008KT P6SM SKC
     FM301500 34016G23KT P6SM OVC025
     FM310100 36007KT P6SM SKC=



000
FTUS43 KABR 300500
TAFMBG
TAF
KMBG 300523Z 3006/3106 VRB05KT P6SM SKC
     FM301300 33014G21KT P6SM OVC025
     FM310000 02007KT P6SM SKC=



000
FTUS43 KABR 300500
TAFATY
TAF
KATY 300523Z 3006/3106 VRB05KT P6SM OVC050
     FM300900 VRB05KT P6SM SKC
     FM301600 35015G24KT P6SM OVC025
     FM302100 34015KT P6SM BKN050
     FM310100 36010KT P6SM SKC=



000
FTUS43 KABR 300500
TAFABR
TAF
KABR 300523Z 3006/3106 VRB05KT P6SM VCSH OVC050
     FM300800 VRB05KT P6SM SKC
     FM301500 35015G22KT P6SM OVC025
     FM302100 36015KT P6SM BKN050
     FM310000 01007KT P6SM SKC=



000
FTUS43 KABR 292300
TAFATY
TAF
KATY 292325Z 3000/3024 VRB05KT P6SM OVC150
     FM301600 35015G22KT P6SM OVC020
     FM302100 34015KT P6SM OVC050=



000
FTUS43 KABR 292300
TAFMBG
TAF
KMBG 292325Z 3000/3024 VRB05KT P6SM OVC070
     FM300400 34007KT P6SM SCT250
     FM301300 33011KT P6SM OVC020
     FM301900 35011KT P6SM SKC=



000
FTUS43 KABR 292300
TAFPIR
TAF
KPIR 292325Z 3000/3024 VRB05KT P6SM BKN120
     FM300400 30008KT P6SM SCT250
     FM301500 34016G23KT P6SM OVC020
     FM302000 35011KT P6SM SKC=



000
FTUS43 KABR 292300
TAFABR
TAF
KABR 292325Z 3000/3024 VRB05KT P6SM OVC100
      TEMPO 3001/3003 -RA OVC050
     FM300900 30009KT P6SM BKN100
     FM301500 35015G22KT P6SM BKN020
     FM302100 36015KT P6SM BKN050=



000
FTUS43 KABR 291700
TAFMBG
TAF
KMBG 291735Z 2918/3018 17013KT P6SM SKC
     FM292100 17011KT P6SM VCSH OVC070
     FM300600 34007KT P6SM SCT200
     FM301200 33011KT P6SM BKN010=



000
FTUS43 KABR 291700
TAFATY
TAF
KATY 291735Z 2918/3018 30004KT P6SM SCT020
     FM292100 19009KT P6SM SKC
     FM300300 18004KT P6SM VCSH OVC060
     FM301200 33009KT P6SM OVC050=



000
FTUS43 KABR 291700
TAFPIR
TAF
KPIR 291735Z 2918/3018 13011KT P6SM SKC
     FM292100 19009KT P6SM BKN100
     FM300600 30010KT P6SM SCT250=



000
FTUS43 KABR 291700
TAFABR
TAF
KABR 291735Z 2918/3018 17011KT P6SM SKC
     FM300000 19005KT P6SM VCSH OVC070
     FM300900 30009KT P6SM BKN250
     FM301500 35012KT P6SM BKN015=



000
FTUS43 KABR 291600 AAD
TAFPIR
TAF AMD
KPIR 291614Z 2916/3012 13012KT P6SM SKC
     FM300000 VRB03KT P6SM OVC100
     FM301100 31015KT P6SM OVC025=



000
FTUS43 KABR 291600 AAB
TAFMBG
TAF AMD
KMBG 291614Z 2916/3012 16011KT P6SM SKC
     FM300000 VRB03KT P6SM OVC100
     FM301000 33008KT P6SM OVC025=



000
FTUS43 KABR 291400 AAA
TAFATY
TAF AMD
KATY 291453Z 2915/3012 26004KT P6SM BKN022
     FM291700 17006KT P6SM BKN250
     FM300800 VRB04KT P6SM OVC025=



000
FTUS43 KABR 291400 AAC
TAFPIR
TAF AMD
KPIR 291447Z 2915/3012 09003KT P6SM FEW001
     FM291700 14010KT P6SM BKN250
     FM300000 VRB03KT P6SM OVC100
     FM301100 31015KT P6SM OVC025=



000
FTUS43 KABR 291300 AAB
TAFPIR
TAF AMD
KPIR 291349Z 2914/3012 VRB03KT 3SM BR SKC
      TEMPO 2914/2915 1/4SM FZFG VV001
     FM291700 14010KT P6SM BKN250
     FM300000 VRB03KT P6SM OVC100
     FM301100 31015KT P6SM OVC025=



    US Dept of Commerce
    National Oceanic and Atmospheric Administration
    National Weather Service
    1325 East West Highway
    Silver Spring, MD 20910
    Page Author: NWS Internet Services Team
Disclaimer
Information Quality
Credits
Glossary
Privacy Policy
Freedom of Information Act (FOIA)
About Us
Career Opportunities